sensor_id;sensor_type;location;lat;lon;timestamp;temperature;humidity
12384;DHT22;6256;63.808;20.336;2024-02-21T00:02:18;-1.40;99.90
12384;DHT22;6256;63.808;20.336;2024-02-21T00:04:44;-1.40;99.90
12384;DHT22;6256;63.808;20.336;2024-02-21T00:07:09;-1.40;99.90
12384;DHT22;6256;63.808;20.336;2024-02-21T00:09:35;-1.40;99.90
12384;DHT22;6256;63.808;20.336;2024-02-21T00:12:01;-1.30;99.90
12384;DHT22;6256;63.808;20.336;2024-02-21T00:14:27;-1.30;99.90
12384;DHT22;6256;63.808;20.336;2024-02-21T00:16:52;-1.30;99.90
12384;DHT22;6256;63.808;20.336;2024-02-21T00:19:18;-1.30;99.90
12384;DHT22;6256;63.808;20.336;2024-02-21T00:21:44;-1.30;99.90
12384;DHT22;6256;63.808;20.336;2024-02-21T00:26:36;-1.20;99.90
12384;DHT22;6256;63.808;20.336;2024-02-21T00:29:01;-1.20;99.90
12384;DHT22;6256;63.808;20.336;2024-02-21T00:31:27;-1.20;99.90
12384;DHT22;6256;63.808;20.336;2024-02-21T00:33:53;-1.20;99.90
12384;DHT22;6256;63.808;20.336;2024-02-21T00:36:18;-1.10;99.90
12384;DHT22;6256;63.808;20.336;2024-02-21T00:38:44;-1.10;99.90
12384;DHT22;6256;63.808;20.336;2024-02-21T00:41:10;-1.00;99.90
12384;DHT22;6256;63.808;20.336;2024-02-21T00:43:36;-1.10;99.90
12384;DHT22;6256;63.808;20.336;2024-02-21T00:46:01;-1.10;99.90
12384;DHT22;6256;63.808;20.336;2024-02-21T00:48:27;-1.10;99.90
12384;DHT22;6256;63.808;20.336;2024-02-21T00:50:53;-1.10;99.90
12384;DHT22;6256;63.808;20.336;2024-02-21T00:53:18;-1.10;99.90
12384;DHT22;6256;63.808;20.336;2024-02-21T00:55:44;-1.00;99.90
12384;DHT22;6256;63.808;20.336;2024-02-21T00:58:10;-1.00;99.90
12384;DHT22;6256;63.808;20.336;2024-02-21T01:00:36;-1.00;99.90
12384;DHT22;6256;63.808;20.336;2024-02-21T01:03:02;-1.00;99.90
12384;DHT22;6256;63.808;20.336;2024-02-21T01:05:28;-1.00;99.90
12384;DHT22;6256;63.808;20.336;2024-02-21T01:07:54;-0.90;99.90
12384;DHT22;6256;63.808;20.336;2024-02-21T01:10:20;-0.90;99.90
12384;DHT22;6256;63.808;20.336;2024-02-21T01:12:46;-0.90;99.90
12384;DHT22;6256;63.808;20.336;2024-02-21T01:15:11;-0.90;99.90
12384;DHT22;6256;63.808;20.336;2024-02-21T01:17:38;-0.90;99.90
12384;DHT22;6256;63.808;20.336;2024-02-21T01:22:32;-0.80;99.90
12384;DHT22;6256;63.808;20.336;2024-02-21T01:24:58;-0.80;99.90
12384;DHT22;6256;63.808;20.336;2024-02-21T01:27:24;-0.80;99.90
12384;DHT22;6256;63.808;20.336;2024-02-21T01:29:49;-0.80;99.90
12384;DHT22;6256;63.808;20.336;2024-02-21T01:32:16;-0.70;99.90
12384;DHT22;6256;63.808;20.336;2024-02-21T01:34:41;-0.70;99.90
12384;DHT22;6256;63.808;20.336;2024-02-21T01:37:07;-0.70;99.90
12384;DHT22;6256;63.808;20.336;2024-02-21T01:39:33;-0.60;99.90
12384;DHT22;6256;63.808;20.336;2024-02-21T01:41:59;-0.50;99.90
12384;DHT22;6256;63.808;20.336;2024-02-21T01:44:25;-0.50;99.90
12384;DHT22;6256;63.808;20.336;2024-02-21T01:46:52;-0.50;99.90
12384;DHT22;6256;63.808;20.336;2024-02-21T01:49:19;-0.50;99.90
12384;DHT22;6256;63.808;20.336;2024-02-21T01:51:45;-0.50;99.90
12384;DHT22;6256;63.808;20.336;2024-02-21T01:54:13;-0.40;99.90
12384;DHT22;6256;63.808;20.336;2024-02-21T01:56:40;-0.40;99.90
12384;DHT22;6256;63.808;20.336;2024-02-21T01:59:06;-0.40;99.90
12384;DHT22;6256;63.808;20.336;2024-02-21T02:01:32;-0.40;99.90
12384;DHT22;6256;63.808;20.336;2024-02-21T02:03:59;-0.30;99.90
12384;DHT22;6256;63.808;20.336;2024-02-21T02:06:25;-0.30;99.90
12384;DHT22;6256;63.808;20.336;2024-02-21T02:08:51;-0.30;99.90
12384;DHT22;6256;63.808;20.336;2024-02-21T02:11:17;-0.30;99.90
12384;DHT22;6256;63.808;20.336;2024-02-21T02:13:43;-0.30;99.90
12384;DHT22;6256;63.808;20.336;2024-02-21T02:16:09;-0.30;99.90
12384;DHT22;6256;63.808;20.336;2024-02-21T02:18:34;-0.30;99.90
12384;DHT22;6256;63.808;20.336;2024-02-21T02:21:00;-0.20;99.90
12384;DHT22;6256;63.808;20.336;2024-02-21T02:23:32;-0.30;99.90
12384;DHT22;6256;63.808;20.336;2024-02-21T02:25:59;-0.30;99.90
12384;DHT22;6256;63.808;20.336;2024-02-21T02:28:26;-0.30;99.90
12384;DHT22;6256;63.808;20.336;2024-02-21T02:30:52;-0.30;99.90
12384;DHT22;6256;63.808;20.336;2024-02-21T02:33:18;-0.30;99.90
12384;DHT22;6256;63.808;20.336;2024-02-21T02:35:44;-0.30;99.90
12384;DHT22;6256;63.808;20.336;2024-02-21T02:38:11;-0.30;99.90
12384;DHT22;6256;63.808;20.336;2024-02-21T02:40:40;-0.20;99.90
12384;DHT22;6256;63.808;20.336;2024-02-21T02:43:06;-0.20;99.90
12384;DHT22;6256;63.808;20.336;2024-02-21T02:45:35;-0.20;99.90
12384;DHT22;6256;63.808;20.336;2024-02-21T02:48:01;-0.20;99.90
12384;DHT22;6256;63.808;20.336;2024-02-21T02:50:27;-0.30;99.90
12384;DHT22;6256;63.808;20.336;2024-02-21T02:52:54;-0.30;99.90
12384;DHT22;6256;63.808;20.336;2024-02-21T02:55:20;-0.30;99.90
12384;DHT22;6256;63.808;20.336;2024-02-21T02:57:46;-0.30;99.90
12384;DHT22;6256;63.808;20.336;2024-02-21T03:00:13;-0.20;99.90
12384;DHT22;6256;63.808;20.336;2024-02-21T03:02:39;-0.30;99.90
12384;DHT22;6256;63.808;20.336;2024-02-21T03:05:19;-0.30;99.90
12384;DHT22;6256;63.808;20.336;2024-02-21T03:07:45;-0.30;99.90
12384;DHT22;6256;63.808;20.336;2024-02-21T03:10:12;-0.30;99.90
12384;DHT22;6256;63.808;20.336;2024-02-21T03:12:38;-0.30;99.90
12384;DHT22;6256;63.808;20.336;2024-02-21T03:15:05;-0.40;99.90
12384;DHT22;6256;63.808;20.336;2024-02-21T03:17:31;-0.40;99.90
12384;DHT22;6256;63.808;20.336;2024-02-21T03:19:58;-0.50;99.90
12384;DHT22;6256;63.808;20.336;2024-02-21T03:22:25;-0.40;99.90
12384;DHT22;6256;63.808;20.336;2024-02-21T03:24:51;-0.40;99.90
12384;DHT22;6256;63.808;20.336;2024-02-21T03:27:16;-0.40;99.90
12384;DHT22;6256;63.808;20.336;2024-02-21T03:29:42;-0.40;99.90
12384;DHT22;6256;63.808;20.336;2024-02-21T03:32:13;-0.40;99.90
12384;DHT22;6256;63.808;20.336;2024-02-21T03:34:38;-0.40;99.90
12384;DHT22;6256;63.808;20.336;2024-02-21T03:37:04;-0.40;99.90
12384;DHT22;6256;63.808;20.336;2024-02-21T03:39:33;-0.30;99.90
12384;DHT22;6256;63.808;20.336;2024-02-21T03:41:59;-0.30;99.90
12384;DHT22;6256;63.808;20.336;2024-02-21T03:44:31;-0.30;99.90
12384;DHT22;6256;63.808;20.336;2024-02-21T03:46:59;-0.20;99.90
12384;DHT22;6256;63.808;20.336;2024-02-21T03:49:26;-0.20;99.90
12384;DHT22;6256;63.808;20.336;2024-02-21T03:51:54;-0.20;99.90
12384;DHT22;6256;63.808;20.336;2024-02-21T03:54:20;-0.30;99.90
12384;DHT22;6256;63.808;20.336;2024-02-21T03:56:46;-0.30;99.90
12384;DHT22;6256;63.808;20.336;2024-02-21T03:59:15;-0.30;99.90
12384;DHT22;6256;63.808;20.336;2024-02-21T04:01:41;-0.30;99.90
12384;DHT22;6256;63.808;20.336;2024-02-21T04:04:07;-0.30;99.90
12384;DHT22;6256;63.808;20.336;2024-02-21T04:06:33;-0.40;99.90
12384;DHT22;6256;63.808;20.336;2024-02-21T04:08:58;-0.40;99.90
12384;DHT22;6256;63.808;20.336;2024-02-21T04:11:24;-0.30;99.90
12384;DHT22;6256;63.808;20.336;2024-02-21T04:13:50;-0.40;99.90
12384;DHT22;6256;63.808;20.336;2024-02-21T04:16:17;-0.40;99.90
12384;DHT22;6256;63.808;20.336;2024-02-21T04:18:43;-0.30;99.90
12384;DHT22;6256;63.808;20.336;2024-02-21T04:21:09;-0.30;99.90
12384;DHT22;6256;63.808;20.336;2024-02-21T04:23:35;-0.40;99.90
12384;DHT22;6256;63.808;20.336;2024-02-21T04:26:01;-0.40;99.90
12384;DHT22;6256;63.808;20.336;2024-02-21T04:28:27;-0.40;99.90
12384;DHT22;6256;63.808;20.336;2024-02-21T04:30:52;-0.40;99.90
12384;DHT22;6256;63.808;20.336;2024-02-21T04:33:18;-0.40;99.90
12384;DHT22;6256;63.808;20.336;2024-02-21T04:35:44;-0.40;99.90
12384;DHT22;6256;63.808;20.336;2024-02-21T04:38:10;-0.40;99.90
12384;DHT22;6256;63.808;20.336;2024-02-21T04:40:36;-0.40;99.90
12384;DHT22;6256;63.808;20.336;2024-02-21T04:43:02;-0.40;99.90
12384;DHT22;6256;63.808;20.336;2024-02-21T04:45:28;-0.40;99.90
12384;DHT22;6256;63.808;20.336;2024-02-21T04:47:54;-0.40;99.90
12384;DHT22;6256;63.808;20.336;2024-02-21T04:50:19;-0.30;99.90
12384;DHT22;6256;63.808;20.336;2024-02-21T04:52:45;-0.30;99.90
12384;DHT22;6256;63.808;20.336;2024-02-21T04:55:11;-0.40;99.90
12384;DHT22;6256;63.808;20.336;2024-02-21T04:57:36;-0.40;99.90
12384;DHT22;6256;63.808;20.336;2024-02-21T05:00:02;-0.40;99.90
12384;DHT22;6256;63.808;20.336;2024-02-21T05:02:29;-0.40;99.90
12384;DHT22;6256;63.808;20.336;2024-02-21T05:04:55;-0.40;99.90
12384;DHT22;6256;63.808;20.336;2024-02-21T05:07:21;-0.40;99.90
12384;DHT22;6256;63.808;20.336;2024-02-21T05:09:47;-0.40;99.90
12384;DHT22;6256;63.808;20.336;2024-02-21T05:12:13;-0.40;99.90
12384;DHT22;6256;63.808;20.336;2024-02-21T05:14:38;-0.30;99.90
12384;DHT22;6256;63.808;20.336;2024-02-21T05:17:04;-0.40;99.90
12384;DHT22;6256;63.808;20.336;2024-02-21T05:19:30;-0.30;99.90
12384;DHT22;6256;63.808;20.336;2024-02-21T05:21:56;-0.30;99.90
12384;DHT22;6256;63.808;20.336;2024-02-21T05:24:21;-0.30;99.90
12384;DHT22;6256;63.808;20.336;2024-02-21T05:26:47;-0.30;99.90
12384;DHT22;6256;63.808;20.336;2024-02-21T05:29:13;-0.30;99.90
12384;DHT22;6256;63.808;20.336;2024-02-21T05:34:17;-0.30;99.90
12384;DHT22;6256;63.808;20.336;2024-02-21T05:36:43;-0.30;99.90
12384;DHT22;6256;63.808;20.336;2024-02-21T05:39:09;-0.30;99.90
12384;DHT22;6256;63.808;20.336;2024-02-21T05:41:35;-0.20;99.90
12384;DHT22;6256;63.808;20.336;2024-02-21T05:44:01;-0.20;99.90
12384;DHT22;6256;63.808;20.336;2024-02-21T05:46:27;-0.20;99.90
12384;DHT22;6256;63.808;20.336;2024-02-21T05:48:53;-0.20;99.90
12384;DHT22;6256;63.808;20.336;2024-02-21T05:51:19;-0.20;99.90
12384;DHT22;6256;63.808;20.336;2024-02-21T05:53:44;-0.30;99.90
12384;DHT22;6256;63.808;20.336;2024-02-21T05:56:11;-0.20;99.90
12384;DHT22;6256;63.808;20.336;2024-02-21T05:58:37;-0.30;99.90
12384;DHT22;6256;63.808;20.336;2024-02-21T06:01:03;-0.30;99.90
12384;DHT22;6256;63.808;20.336;2024-02-21T06:03:29;-0.30;99.90
12384;DHT22;6256;63.808;20.336;2024-02-21T06:05:55;-0.30;99.90
12384;DHT22;6256;63.808;20.336;2024-02-21T06:08:20;-0.30;99.90
12384;DHT22;6256;63.808;20.336;2024-02-21T06:10:46;-0.30;99.90
12384;DHT22;6256;63.808;20.336;2024-02-21T06:13:14;-0.20;99.90
12384;DHT22;6256;63.808;20.336;2024-02-21T06:15:39;-0.20;99.90
12384;DHT22;6256;63.808;20.336;2024-02-21T06:18:05;-0.30;99.90
12384;DHT22;6256;63.808;20.336;2024-02-21T06:20:31;-0.30;99.90
12384;DHT22;6256;63.808;20.336;2024-02-21T06:22:57;-0.20;99.90
12384;DHT22;6256;63.808;20.336;2024-02-21T06:25:23;-0.20;99.90
12384;DHT22;6256;63.808;20.336;2024-02-21T06:27:48;-0.20;99.90
12384;DHT22;6256;63.808;20.336;2024-02-21T06:30:14;-0.20;99.90
12384;DHT22;6256;63.808;20.336;2024-02-21T06:32:40;-0.20;99.90
12384;DHT22;6256;63.808;20.336;2024-02-21T06:35:06;-0.20;99.90
12384;DHT22;6256;63.808;20.336;2024-02-21T06:37:31;-0.20;99.90
12384;DHT22;6256;63.808;20.336;2024-02-21T06:39:58;-0.30;99.90
12384;DHT22;6256;63.808;20.336;2024-02-21T06:42:26;-0.20;99.90
12384;DHT22;6256;63.808;20.336;2024-02-21T06:44:52;-0.20;99.90
12384;DHT22;6256;63.808;20.336;2024-02-21T06:47:18;-0.20;99.90
12384;DHT22;6256;63.808;20.336;2024-02-21T06:49:48;-0.20;99.90
12384;DHT22;6256;63.808;20.336;2024-02-21T06:52:16;-0.10;99.90
12384;DHT22;6256;63.808;20.336;2024-02-21T06:54:42;-0.20;99.90
12384;DHT22;6256;63.808;20.336;2024-02-21T06:57:08;-0.20;99.90
12384;DHT22;6256;63.808;20.336;2024-02-21T06:59:34;-0.20;99.90
12384;DHT22;6256;63.808;20.336;2024-02-21T07:01:59;-0.20;99.90
12384;DHT22;6256;63.808;20.336;2024-02-21T07:04:26;-0.20;99.90
12384;DHT22;6256;63.808;20.336;2024-02-21T07:06:52;-0.20;99.90
12384;DHT22;6256;63.808;20.336;2024-02-21T07:09:18;-0.10;99.90
12384;DHT22;6256;63.808;20.336;2024-02-21T07:11:44;-0.10;99.90
12384;DHT22;6256;63.808;20.336;2024-02-21T07:14:09;-0.10;99.90
12384;DHT22;6256;63.808;20.336;2024-02-21T07:16:35;-0.10;99.90
12384;DHT22;6256;63.808;20.336;2024-02-21T07:19:01;-0.10;99.90
12384;DHT22;6256;63.808;20.336;2024-02-21T07:21:27;0.00;99.90
12384;DHT22;6256;63.808;20.336;2024-02-21T07:23:53;0.00;99.90
12384;DHT22;6256;63.808;20.336;2024-02-21T07:26:19;0.00;99.90
12384;DHT22;6256;63.808;20.336;2024-02-21T07:28:44;0.00;99.90
12384;DHT22;6256;63.808;20.336;2024-02-21T07:31:10;0.00;99.90
12384;DHT22;6256;63.808;20.336;2024-02-21T07:33:36;0.00;99.90
12384;DHT22;6256;63.808;20.336;2024-02-21T07:36:06;0.00;99.90
12384;DHT22;6256;63.808;20.336;2024-02-21T07:38:32;0.10;99.90
12384;DHT22;6256;63.808;20.336;2024-02-21T07:40:57;0.10;99.90
12384;DHT22;6256;63.808;20.336;2024-02-21T07:43:23;0.10;99.90
12384;DHT22;6256;63.808;20.336;2024-02-21T07:45:49;0.20;99.90
12384;DHT22;6256;63.808;20.336;2024-02-21T07:48:14;0.20;99.90
12384;DHT22;6256;63.808;20.336;2024-02-21T07:50:40;0.20;99.90
12384;DHT22;6256;63.808;20.336;2024-02-21T07:53:06;0.20;99.90
12384;DHT22;6256;63.808;20.336;2024-02-21T07:55:32;0.20;99.90
12384;DHT22;6256;63.808;20.336;2024-02-21T07:57:57;0.20;99.90
12384;DHT22;6256;63.808;20.336;2024-02-21T08:00:23;0.30;99.90
12384;DHT22;6256;63.808;20.336;2024-02-21T08:02:49;0.40;99.90
12384;DHT22;6256;63.808;20.336;2024-02-21T08:05:14;0.40;99.90
12384;DHT22;6256;63.808;20.336;2024-02-21T08:07:40;0.40;99.90
12384;DHT22;6256;63.808;20.336;2024-02-21T08:10:06;0.30;99.90
12384;DHT22;6256;63.808;20.336;2024-02-21T08:12:33;0.30;99.90
12384;DHT22;6256;63.808;20.336;2024-02-21T08:17:25;0.50;99.90
12384;DHT22;6256;63.808;20.336;2024-02-21T08:19:51;0.60;99.90
12384;DHT22;6256;63.808;20.336;2024-02-21T08:22:16;0.70;99.90
12384;DHT22;6256;63.808;20.336;2024-02-21T08:24:42;0.70;99.90
12384;DHT22;6256;63.808;20.336;2024-02-21T08:27:08;0.70;99.90
12384;DHT22;6256;63.808;20.336;2024-02-21T08:29:34;0.70;99.90
12384;DHT22;6256;63.808;20.336;2024-02-21T08:31:59;0.80;99.90
12384;DHT22;6256;63.808;20.336;2024-02-21T08:34:25;0.70;99.90
12384;DHT22;6256;63.808;20.336;2024-02-21T08:36:51;0.80;99.90
12384;DHT22;6256;63.808;20.336;2024-02-21T08:39:17;0.80;99.90
12384;DHT22;6256;63.808;20.336;2024-02-21T08:41:42;0.70;99.90
12384;DHT22;6256;63.808;20.336;2024-02-21T08:44:08;0.70;99.90
12384;DHT22;6256;63.808;20.336;2024-02-21T08:46:34;0.80;99.90
12384;DHT22;6256;63.808;20.336;2024-02-21T08:48:59;0.80;99.90
12384;DHT22;6256;63.808;20.336;2024-02-21T08:51:25;0.90;99.90
12384;DHT22;6256;63.808;20.336;2024-02-21T08:53:52;1.00;99.90
12384;DHT22;6256;63.808;20.336;2024-02-21T08:56:19;0.90;99.90
12384;DHT22;6256;63.808;20.336;2024-02-21T08:58:45;0.90;99.90
12384;DHT22;6256;63.808;20.336;2024-02-21T09:01:10;1.10;99.90
12384;DHT22;6256;63.808;20.336;2024-02-21T09:03:39;1.10;99.90
12384;DHT22;6256;63.808;20.336;2024-02-21T09:06:05;1.20;99.90
12384;DHT22;6256;63.808;20.336;2024-02-21T09:08:32;1.20;99.90
12384;DHT22;6256;63.808;20.336;2024-02-21T09:10:58;1.20;99.90
12384;DHT22;6256;63.808;20.336;2024-02-21T09:13:23;1.20;99.90
12384;DHT22;6256;63.808;20.336;2024-02-21T09:15:49;1.10;99.90
12384;DHT22;6256;63.808;20.336;2024-02-21T09:18:15;1.10;99.90
12384;DHT22;6256;63.808;20.336;2024-02-21T09:20:42;1.00;99.90
12384;DHT22;6256;63.808;20.336;2024-02-21T09:23:08;1.00;99.90
12384;DHT22;6256;63.808;20.336;2024-02-21T09:25:34;1.00;99.90
12384;DHT22;6256;63.808;20.336;2024-02-21T09:28:01;1.00;99.90
12384;DHT22;6256;63.808;20.336;2024-02-21T09:30:27;0.90;99.90
12384;DHT22;6256;63.808;20.336;2024-02-21T09:32:53;1.00;99.90
12384;DHT22;6256;63.808;20.336;2024-02-21T09:35:19;1.10;99.90
12384;DHT22;6256;63.808;20.336;2024-02-21T09:37:45;1.20;99.90
12384;DHT22;6256;63.808;20.336;2024-02-21T09:40:11;1.20;99.90
12384;DHT22;6256;63.808;20.336;2024-02-21T09:42:41;1.20;99.90
12384;DHT22;6256;63.808;20.336;2024-02-21T09:50:40;1.00;99.90
12384;DHT22;6256;63.808;20.336;2024-02-21T09:53:09;1.00;99.90
12384;DHT22;6256;63.808;20.336;2024-02-21T09:55:37;1.00;99.90
12384;DHT22;6256;63.808;20.336;2024-02-21T09:58:05;1.20;99.90
12384;DHT22;6256;63.808;20.336;2024-02-21T10:00:31;1.20;99.90
12384;DHT22;6256;63.808;20.336;2024-02-21T10:02:58;1.30;99.90
12384;DHT22;6256;63.808;20.336;2024-02-21T10:05:24;1.30;99.90
12384;DHT22;6256;63.808;20.336;2024-02-21T10:07:51;1.40;99.90
12384;DHT22;6256;63.808;20.336;2024-02-21T10:10:17;1.30;99.90
12384;DHT22;6256;63.808;20.336;2024-02-21T10:12:52;1.30;99.90
12384;DHT22;6256;63.808;20.336;2024-02-21T10:15:23;1.20;99.90
12384;DHT22;6256;63.808;20.336;2024-02-21T10:18:00;1.30;99.90
12384;DHT22;6256;63.808;20.336;2024-02-21T10:20:26;1.30;99.90
12384;DHT22;6256;63.808;20.336;2024-02-21T10:23:02;1.20;99.90
12384;DHT22;6256;63.808;20.336;2024-02-21T10:25:35;1.20;99.90
12384;DHT22;6256;63.808;20.336;2024-02-21T10:28:03;1.30;99.90
12384;DHT22;6256;63.808;20.336;2024-02-21T10:30:29;1.30;99.90
12384;DHT22;6256;63.808;20.336;2024-02-21T10:32:55;1.30;99.90
12384;DHT22;6256;63.808;20.336;2024-02-21T10:35:32;1.20;99.90
12384;DHT22;6256;63.808;20.336;2024-02-21T10:37:59;1.10;99.90
12384;DHT22;6256;63.808;20.336;2024-02-21T10:40:29;1.20;99.90
12384;DHT22;6256;63.808;20.336;2024-02-21T10:43:00;1.20;99.90
12384;DHT22;6256;63.808;20.336;2024-02-21T10:45:35;1.20;99.90
12384;DHT22;6256;63.808;20.336;2024-02-21T10:48:10;1.20;99.90
12384;DHT22;6256;63.808;20.336;2024-02-21T10:53:53;1.40;99.90
12384;DHT22;6256;63.808;20.336;2024-02-21T10:56:24;1.40;99.90
12384;DHT22;6256;63.808;20.336;2024-02-21T10:58:52;1.40;99.90
12384;DHT22;6256;63.808;20.336;2024-02-21T11:01:19;1.40;99.90
12384;DHT22;6256;63.808;20.336;2024-02-21T11:03:46;1.40;99.90
12384;DHT22;6256;63.808;20.336;2024-02-21T11:06:14;1.40;99.90
12384;DHT22;6256;63.808;20.336;2024-02-21T11:08:40;1.50;99.90
12384;DHT22;6256;63.808;20.336;2024-02-21T11:11:06;1.40;99.90
12384;DHT22;6256;63.808;20.336;2024-02-21T11:13:35;1.50;99.90
12384;DHT22;6256;63.808;20.336;2024-02-21T11:16:07;1.40;99.90
12384;DHT22;6256;63.808;20.336;2024-02-21T11:18:35;1.40;99.90
12384;DHT22;6256;63.808;20.336;2024-02-21T11:21:00;1.50;99.90
12384;DHT22;6256;63.808;20.336;2024-02-21T11:23:26;1.50;99.90
12384;DHT22;6256;63.808;20.336;2024-02-21T11:25:52;1.40;99.90
12384;DHT22;6256;63.808;20.336;2024-02-21T11:28:25;1.50;99.90
12384;DHT22;6256;63.808;20.336;2024-02-21T11:30:51;1.50;99.90
12384;DHT22;6256;63.808;20.336;2024-02-21T11:33:17;1.40;99.90
12384;DHT22;6256;63.808;20.336;2024-02-21T11:35:43;1.50;99.90
12384;DHT22;6256;63.808;20.336;2024-02-21T11:38:12;1.50;99.90
12384;DHT22;6256;63.808;20.336;2024-02-21T11:40:41;1.50;99.90
12384;DHT22;6256;63.808;20.336;2024-02-21T11:43:07;1.40;99.90
12384;DHT22;6256;63.808;20.336;2024-02-21T11:45:33;1.40;99.90
12384;DHT22;6256;63.808;20.336;2024-02-21T11:48:00;1.40;99.90
12384;DHT22;6256;63.808;20.336;2024-02-21T11:50:29;1.40;99.90
12384;DHT22;6256;63.808;20.336;2024-02-21T11:52:55;1.40;99.90
12384;DHT22;6256;63.808;20.336;2024-02-21T11:55:22;1.50;99.90
12384;DHT22;6256;63.808;20.336;2024-02-21T11:57:48;1.50;99.90
12384;DHT22;6256;63.808;20.336;2024-02-21T12:00:18;1.50;99.90
12384;DHT22;6256;63.808;20.336;2024-02-21T12:02:47;1.40;99.90
12384;DHT22;6256;63.808;20.336;2024-02-21T12:05:14;1.40;99.90
12384;DHT22;6256;63.808;20.336;2024-02-21T12:07:40;1.50;99.90
12384;DHT22;6256;63.808;20.336;2024-02-21T12:10:12;1.50;99.90
12384;DHT22;6256;63.808;20.336;2024-02-21T12:12:39;1.50;99.90
12384;DHT22;6256;63.808;20.336;2024-02-21T12:15:06;1.50;99.90
12384;DHT22;6256;63.808;20.336;2024-02-21T12:17:41;1.50;99.90
12384;DHT22;6256;63.808;20.336;2024-02-21T12:20:08;1.50;99.90
12384;DHT22;6256;63.808;20.336;2024-02-21T12:22:37;1.50;99.90
12384;DHT22;6256;63.808;20.336;2024-02-21T12:25:16;1.40;99.90
12384;DHT22;6256;63.808;20.336;2024-02-21T12:27:46;1.40;99.90
12384;DHT22;6256;63.808;20.336;2024-02-21T12:30:11;1.40;99.90
12384;DHT22;6256;63.808;20.336;2024-02-21T12:32:37;1.40;99.90
12384;DHT22;6256;63.808;20.336;2024-02-21T12:35:04;1.40;99.90
12384;DHT22;6256;63.808;20.336;2024-02-21T12:37:29;1.40;99.90
12384;DHT22;6256;63.808;20.336;2024-02-21T12:39:55;1.50;99.90
12384;DHT22;6256;63.808;20.336;2024-02-21T12:42:21;1.60;99.90
12384;DHT22;6256;63.808;20.336;2024-02-21T12:44:49;1.60;99.90
12384;DHT22;6256;63.808;20.336;2024-02-21T12:47:14;1.60;99.90
12384;DHT22;6256;63.808;20.336;2024-02-21T12:49:40;1.50;99.90
12384;DHT22;6256;63.808;20.336;2024-02-21T12:52:06;1.60;99.90
12384;DHT22;6256;63.808;20.336;2024-02-21T12:54:32;1.40;99.90
12384;DHT22;6256;63.808;20.336;2024-02-21T12:56:59;1.50;99.90
12384;DHT22;6256;63.808;20.336;2024-02-21T12:59:28;1.60;99.90
12384;DHT22;6256;63.808;20.336;2024-02-21T13:01:54;1.60;99.90
12384;DHT22;6256;63.808;20.336;2024-02-21T13:04:20;1.60;99.90
12384;DHT22;6256;63.808;20.336;2024-02-21T13:06:48;1.60;99.90
12384;DHT22;6256;63.808;20.336;2024-02-21T13:09:14;1.60;99.90
12384;DHT22;6256;63.808;20.336;2024-02-21T13:11:40;1.60;99.90
12384;DHT22;6256;63.808;20.336;2024-02-21T13:14:06;1.60;99.90
12384;DHT22;6256;63.808;20.336;2024-02-21T13:16:32;1.60;99.90
12384;DHT22;6256;63.808;20.336;2024-02-21T13:19:07;1.60;99.90
12384;DHT22;6256;63.808;20.336;2024-02-21T13:21:36;1.70;99.90
12384;DHT22;6256;63.808;20.336;2024-02-21T13:24:02;1.60;99.90
12384;DHT22;6256;63.808;20.336;2024-02-21T13:26:28;1.60;99.90
12384;DHT22;6256;63.808;20.336;2024-02-21T13:28:54;1.60;99.90
12384;DHT22;6256;63.808;20.336;2024-02-21T13:31:20;1.70;99.90
12384;DHT22;6256;63.808;20.336;2024-02-21T13:33:46;1.70;99.90
12384;DHT22;6256;63.808;20.336;2024-02-21T13:36:12;1.70;99.90
12384;DHT22;6256;63.808;20.336;2024-02-21T13:38:38;1.70;99.90
12384;DHT22;6256;63.808;20.336;2024-02-21T13:41:06;1.70;99.90
12384;DHT22;6256;63.808;20.336;2024-02-21T13:43:33;1.80;99.90
12384;DHT22;6256;63.808;20.336;2024-02-21T13:46:02;1.70;99.90
12384;DHT22;6256;63.808;20.336;2024-02-21T13:48:35;1.70;99.90
12384;DHT22;6256;63.808;20.336;2024-02-21T13:51:01;1.70;99.90
12384;DHT22;6256;63.808;20.336;2024-02-21T13:53:28;1.60;99.90
12384;DHT22;6256;63.808;20.336;2024-02-21T13:55:53;1.60;99.90
12384;DHT22;6256;63.808;20.336;2024-02-21T13:58:19;1.60;99.90
12384;DHT22;6256;63.808;20.336;2024-02-21T14:00:45;1.60;99.90
12384;DHT22;6256;63.808;20.336;2024-02-21T14:03:11;1.50;99.90
12384;DHT22;6256;63.808;20.336;2024-02-21T14:05:37;1.50;99.90
12384;DHT22;6256;63.808;20.336;2024-02-21T14:08:03;1.50;99.90
12384;DHT22;6256;63.808;20.336;2024-02-21T14:10:29;1.40;99.90
12384;DHT22;6256;63.808;20.336;2024-02-21T14:12:54;1.40;99.90
12384;DHT22;6256;63.808;20.336;2024-02-21T14:15:20;1.50;99.90
12384;DHT22;6256;63.808;20.336;2024-02-21T14:17:46;1.60;99.90
12384;DHT22;6256;63.808;20.336;2024-02-21T14:20:12;1.60;99.90
12384;DHT22;6256;63.808;20.336;2024-02-21T14:22:39;1.60;99.90
12384;DHT22;6256;63.808;20.336;2024-02-21T14:25:06;1.60;99.90
12384;DHT22;6256;63.808;20.336;2024-02-21T14:27:32;1.60;99.90
12384;DHT22;6256;63.808;20.336;2024-02-21T14:29:58;1.60;99.90
12384;DHT22;6256;63.808;20.336;2024-02-21T14:32:24;1.60;99.90
12384;DHT22;6256;63.808;20.336;2024-02-21T14:34:50;1.60;99.90
12384;DHT22;6256;63.808;20.336;2024-02-21T14:37:16;1.60;99.90
12384;DHT22;6256;63.808;20.336;2024-02-21T14:39:42;1.60;99.90
12384;DHT22;6256;63.808;20.336;2024-02-21T14:42:08;1.60;99.90
12384;DHT22;6256;63.808;20.336;2024-02-21T14:44:36;1.60;99.90
12384;DHT22;6256;63.808;20.336;2024-02-21T14:47:02;1.60;99.90
12384;DHT22;6256;63.808;20.336;2024-02-21T14:49:29;1.50;99.90
12384;DHT22;6256;63.808;20.336;2024-02-21T14:51:55;1.50;99.90
12384;DHT22;6256;63.808;20.336;2024-02-21T14:54:21;1.50;99.90
12384;DHT22;6256;63.808;20.336;2024-02-21T14:56:46;1.60;99.90
12384;DHT22;6256;63.808;20.336;2024-02-21T14:59:12;1.50;99.90
12384;DHT22;6256;63.808;20.336;2024-02-21T15:01:38;1.60;99.90
12384;DHT22;6256;63.808;20.336;2024-02-21T15:04:05;1.60;99.90
12384;DHT22;6256;63.808;20.336;2024-02-21T15:06:31;1.40;99.90
12384;DHT22;6256;63.808;20.336;2024-02-21T15:09:02;1.40;99.90
12384;DHT22;6256;63.808;20.336;2024-02-21T15:11:29;1.40;99.90
12384;DHT22;6256;63.808;20.336;2024-02-21T15:13:55;1.30;99.90
12384;DHT22;6256;63.808;20.336;2024-02-21T15:16:20;1.30;99.90
12384;DHT22;6256;63.808;20.336;2024-02-21T15:18:46;1.30;99.90
12384;DHT22;6256;63.808;20.336;2024-02-21T15:21:12;1.40;99.90
12384;DHT22;6256;63.808;20.336;2024-02-21T15:23:41;1.30;99.90
12384;DHT22;6256;63.808;20.336;2024-02-21T15:26:06;1.30;99.90
12384;DHT22;6256;63.808;20.336;2024-02-21T15:28:32;1.20;99.90
12384;DHT22;6256;63.808;20.336;2024-02-21T15:30:58;1.30;99.90
12384;DHT22;6256;63.808;20.336;2024-02-21T15:33:24;1.30;99.90
12384;DHT22;6256;63.808;20.336;2024-02-21T15:35:50;1.30;99.90
12384;DHT22;6256;63.808;20.336;2024-02-21T15:38:16;1.30;99.90
12384;DHT22;6256;63.808;20.336;2024-02-21T15:40:42;1.30;99.90
12384;DHT22;6256;63.808;20.336;2024-02-21T15:43:07;1.20;99.90
12384;DHT22;6256;63.808;20.336;2024-02-21T15:45:34;1.20;99.90
12384;DHT22;6256;63.808;20.336;2024-02-21T15:47:59;1.20;99.90
12384;DHT22;6256;63.808;20.336;2024-02-21T15:50:25;1.20;99.90
12384;DHT22;6256;63.808;20.336;2024-02-21T15:52:54;1.20;99.90
12384;DHT22;6256;63.808;20.336;2024-02-21T15:55:20;1.20;99.90